Thursday, May 05, 2016
02:53 UTC
  |  Log In   |  Register Free
Airport Search:

Madison Municipal Airport
(KIMS)

Madison Municipal Airport Diagram
No Airport Diagram Available

FAA data valid effective Mar 31 2016 - May 26 2016 (unless otherwise noted).

 
 
 
 
 
 
 
 
 
 
 
 
 
 
Current Aviation Weather for KIMS

Weather Summary


Current weather conditions are not available for IMS - The nearest NOAA weather station is at LOU, (33.3 nm SW from IMS)

The most recent METAR observation for IMS was updated at: 12:53 UTC
METAR for KIMS is not available. Closest METAR is for KLOU
KIMS  (most recent observation was updatred at 50:23 UTC)
050232Z AUTO 32006KT 10SM SCT047 SCT060 BKN075 09/02 A2982 RMK AO1

KLOU  (33.3 nm NE)   (most recent observation was updated at 50:15 UTC)
050153Z AUTO 34005KT 10SM FEW039 SCT047 OVC060 12/05 A2979 RMK AO2 SLP088 T01220050

TAF for KIMS is not available.
GlobalAir.com is loading additional information.
 Current Weather at LOU
54.0 F° (12.2 C°)

North winds at 4.6 mph
Pressure:
29.77 in
Humidity:
59%
Wind:
North at 4.6 mph
Dew Point:
39.9 F° (4.4 C°)
Visibility:
10.00 mi
IMS NOAA Radar




Find All Airport Services Find A Hotel Find A Rental Car Find A Golf Course Find A Restaurant $100 Hamburger



Airport Weather Forecast for KIMS

Translated METAR for KIMS (0232 UTC)
METAR:
KIMS 050232Z AUTO 32006KT 10SM SCT047 SCT060 BKN075 09/02 A2982 RMK AO1
Conditions at:
KIMS (Madison Muni, IN) observed 0232 UTC 04 May 2016
Temperature:
9°C (48.2°F)
Dewpoint:
2°C (35.6°F) [RH = 61.5]
Pressure:
29.82 inches Hg (1009.8 mb)
Winds:
from the NW (320 degrees) at 6.9 mph (6 knots: 3.1 m/s)
Visibility:
10 mile(s)
Ceiling:
7,500 feet AGL
Clouds:
Scattered Clouds at 4,700 feet AGL
Scattered Clouds at 6,000 feet AGL
Broken Cloud Cover at 7,500 feet AGL
Remarks:
site is un-manned
site is automated and does NOT have a precipitation sensor

Translated TAF for TAF for IMS is not available. Refer to local area forecast.
FBO's on the Field
FBO Company Facility Photos Services Transportation Aviation Fuel Prices: Prices include tax
Catering Weather Repair Courtesy Rental Type 100LL JetA JetA+ MOGAS 8087
 
City of Madison

Currently rated 5 by 1 person
FS:Shell
Last Updated: Apr-25
Login to update fuel prices
SS:
Contact City of MadisonMore FBO Information
 
Add another FBO Facility Photos Catering Weather Repair Courtesy Rental Type 100LL JetA JetA+ MOGAS 8087
Services Transportation Aviation Fuel Prices: Prices include tax


model-print
model-print
model-print
model-print